sensor_id;sensor_type;location;lat;lon;timestamp;P1;durP1;ratioP1;P2;durP2;ratioP2
3155;SDS011;1588;50.892;7.082;2022-08-25T00:00:26;8.00;;;3.93;;
3155;SDS011;1588;50.892;7.082;2022-08-25T00:05:39;4.07;;;3.03;;
3155;SDS011;1588;50.892;7.082;2022-08-25T00:10:41;3.90;;;3.20;;
3155;SDS011;1588;50.892;7.082;2022-08-25T00:15:45;6.30;;;4.20;;
3155;SDS011;1588;50.892;7.082;2022-08-25T00:20:47;4.57;;;3.10;;
3155;SDS011;1588;50.892;7.082;2022-08-25T00:25:49;5.30;;;2.80;;
3155;SDS011;1588;50.892;7.082;2022-08-25T00:30:53;3.97;;;3.10;;
3155;SDS011;1588;50.892;7.082;2022-08-25T00:35:55;5.23;;;3.37;;
3155;SDS011;1588;50.892;7.082;2022-08-25T00:40:59;5.60;;;3.10;;
3155;SDS011;1588;50.892;7.082;2022-08-25T00:46:08;4.10;;;3.00;;
3155;SDS011;1588;50.892;7.082;2022-08-25T00:51:13;3.70;;;2.90;;
3155;SDS011;1588;50.892;7.082;2022-08-25T00:56:20;3.33;;;3.00;;
3155;SDS011;1588;50.892;7.082;2022-08-25T01:01:24;6.30;;;3.40;;
3155;SDS011;1588;50.892;7.082;2022-08-25T01:06:27;5.00;;;2.93;;
3155;SDS011;1588;50.892;7.082;2022-08-25T01:11:34;4.77;;;3.33;;
3155;SDS011;1588;50.892;7.082;2022-08-25T01:16:38;4.50;;;3.37;;
3155;SDS011;1588;50.892;7.082;2022-08-25T01:21:43;7.67;;;3.57;;
3155;SDS011;1588;50.892;7.082;2022-08-25T01:26:46;9.13;;;3.50;;
3155;SDS011;1588;50.892;7.082;2022-08-25T01:31:49;10.67;;;3.70;;
3155;SDS011;1588;50.892;7.082;2022-08-25T01:36:55;6.30;;;3.60;;
3155;SDS011;1588;50.892;7.082;2022-08-25T01:42:03;3.30;;;3.00;;
3155;SDS011;1588;50.892;7.082;2022-08-25T01:47:23;5.10;;;3.63;;
3155;SDS011;1588;50.892;7.082;2022-08-25T01:52:29;7.73;;;3.87;;
3155;SDS011;1588;50.892;7.082;2022-08-25T01:57:34;4.30;;;3.40;;
3155;SDS011;1588;50.892;7.082;2022-08-25T02:02:37;7.70;;;3.47;;
3155;SDS011;1588;50.892;7.082;2022-08-25T02:07:43;5.00;;;3.50;;
3155;SDS011;1588;50.892;7.082;2022-08-25T02:12:45;5.00;;;3.77;;
3155;SDS011;1588;50.892;7.082;2022-08-25T02:17:47;3.90;;;3.20;;
3155;SDS011;1588;50.892;7.082;2022-08-25T02:23:09;4.30;;;3.37;;
3155;SDS011;1588;50.892;7.082;2022-08-25T02:28:12;5.33;;;3.83;;
3155;SDS011;1588;50.892;7.082;2022-08-25T02:33:14;11.70;;;3.63;;
3155;SDS011;1588;50.892;7.082;2022-08-25T02:38:18;5.30;;;3.43;;
3155;SDS011;1588;50.892;7.082;2022-08-25T02:43:20;5.33;;;3.47;;
3155;SDS011;1588;50.892;7.082;2022-08-25T02:48:23;7.40;;;3.53;;
3155;SDS011;1588;50.892;7.082;2022-08-25T02:53:27;5.90;;;3.20;;
3155;SDS011;1588;50.892;7.082;2022-08-25T02:58:30;4.07;;;3.20;;
3155;SDS011;1588;50.892;7.082;2022-08-25T03:03:32;5.47;;;3.40;;
3155;SDS011;1588;50.892;7.082;2022-08-25T03:08:36;5.10;;;3.80;;
3155;SDS011;1588;50.892;7.082;2022-08-25T03:13:38;4.07;;;3.40;;
3155;SDS011;1588;50.892;7.082;2022-08-25T03:18:41;5.87;;;3.60;;
3155;SDS011;1588;50.892;7.082;2022-08-25T03:23:45;7.00;;;3.77;;
3155;SDS011;1588;50.892;7.082;2022-08-25T03:28:48;6.97;;;3.93;;
3155;SDS011;1588;50.892;7.082;2022-08-25T03:33:50;6.33;;;3.30;;
3155;SDS011;1588;50.892;7.082;2022-08-25T03:38:54;5.17;;;3.63;;
3155;SDS011;1588;50.892;7.082;2022-08-25T03:43:57;8.40;;;4.73;;
3155;SDS011;1588;50.892;7.082;2022-08-25T03:49:01;5.00;;;4.33;;
3155;SDS011;1588;50.892;7.082;2022-08-25T03:54:06;5.47;;;4.20;;
3155;SDS011;1588;50.892;7.082;2022-08-25T03:59:09;5.47;;;4.20;;
3155;SDS011;1588;50.892;7.082;2022-08-25T04:04:13;4.27;;;3.57;;
3155;SDS011;1588;50.892;7.082;2022-08-25T04:09:17;5.33;;;4.37;;
3155;SDS011;1588;50.892;7.082;2022-08-25T04:14:20;5.47;;;4.00;;
3155;SDS011;1588;50.892;7.082;2022-08-25T04:19:22;7.37;;;4.57;;
3155;SDS011;1588;50.892;7.082;2022-08-25T04:24:26;6.57;;;3.87;;
3155;SDS011;1588;50.892;7.082;2022-08-25T04:29:28;7.70;;;4.50;;
3155;SDS011;1588;50.892;7.082;2022-08-25T04:34:32;5.97;;;4.27;;
3155;SDS011;1588;50.892;7.082;2022-08-25T04:39:38;7.60;;;4.30;;
3155;SDS011;1588;50.892;7.082;2022-08-25T04:44:41;9.70;;;5.23;;
3155;SDS011;1588;50.892;7.082;2022-08-25T04:49:43;7.43;;;5.23;;
3155;SDS011;1588;50.892;7.082;2022-08-25T04:54:47;5.90;;;4.70;;
3155;SDS011;1588;50.892;7.082;2022-08-25T04:59:49;13.77;;;5.00;;
3155;SDS011;1588;50.892;7.082;2022-08-25T05:04:51;6.80;;;4.80;;
3155;SDS011;1588;50.892;7.082;2022-08-25T05:09:57;11.53;;;5.00;;
3155;SDS011;1588;50.892;7.082;2022-08-25T05:14:59;14.93;;;5.07;;
3155;SDS011;1588;50.892;7.082;2022-08-25T05:20:40;6.53;;;4.83;;
3155;SDS011;1588;50.892;7.082;2022-08-25T05:25:43;7.10;;;5.30;;
3155;SDS011;1588;50.892;7.082;2022-08-25T05:30:46;6.83;;;5.03;;
3155;SDS011;1588;50.892;7.082;2022-08-25T05:35:49;7.57;;;5.33;;
3155;SDS011;1588;50.892;7.082;2022-08-25T05:40:53;6.83;;;5.37;;
3155;SDS011;1588;50.892;7.082;2022-08-25T05:45:58;18.43;;;5.30;;
3155;SDS011;1588;50.892;7.082;2022-08-25T05:51:01;8.20;;;5.00;;
3155;SDS011;1588;50.892;7.082;2022-08-25T05:56:07;9.47;;;5.30;;
3155;SDS011;1588;50.892;7.082;2022-08-25T06:01:17;7.17;;;4.53;;
3155;SDS011;1588;50.892;7.082;2022-08-25T06:06:39;8.97;;;4.90;;
3155;SDS011;1588;50.892;7.082;2022-08-25T06:11:43;15.50;;;4.97;;
3155;SDS011;1588;50.892;7.082;2022-08-25T06:16:45;7.27;;;4.63;;
3155;SDS011;1588;50.892;7.082;2022-08-25T06:21:52;6.47;;;4.50;;
3155;SDS011;1588;50.892;7.082;2022-08-25T06:26:56;7.47;;;4.47;;
3155;SDS011;1588;50.892;7.082;2022-08-25T06:31:58;7.60;;;4.20;;
3155;SDS011;1588;50.892;7.082;2022-08-25T06:37:01;5.97;;;4.57;;
3155;SDS011;1588;50.892;7.082;2022-08-25T06:42:05;6.70;;;4.80;;
3155;SDS011;1588;50.892;7.082;2022-08-25T06:47:14;8.70;;;3.93;;
3155;SDS011;1588;50.892;7.082;2022-08-25T06:52:17;8.93;;;5.13;;
3155;SDS011;1588;50.892;7.082;2022-08-25T06:57:21;6.87;;;4.60;;
3155;SDS011;1588;50.892;7.082;2022-08-25T07:02:23;16.83;;;4.93;;
3155;SDS011;1588;50.892;7.082;2022-08-25T07:07:26;9.13;;;4.00;;
3155;SDS011;1588;50.892;7.082;2022-08-25T07:12:29;5.67;;;4.47;;
3155;SDS011;1588;50.892;7.082;2022-08-25T07:17:32;7.63;;;4.53;;
3155;SDS011;1588;50.892;7.082;2022-08-25T07:22:52;7.23;;;4.40;;
3155;SDS011;1588;50.892;7.082;2022-08-25T07:28:15;7.70;;;4.70;;
3155;SDS011;1588;50.892;7.082;2022-08-25T07:33:18;16.80;;;5.00;;
3155;SDS011;1588;50.892;7.082;2022-08-25T07:38:21;12.13;;;4.67;;
3155;SDS011;1588;50.892;7.082;2022-08-25T07:43:24;4.63;;;4.03;;
3155;SDS011;1588;50.892;7.082;2022-08-25T07:48:32;5.07;;;4.30;;
3155;SDS011;1588;50.892;7.082;2022-08-25T07:53:34;5.50;;;4.40;;
3155;SDS011;1588;50.892;7.082;2022-08-25T07:58:38;7.30;;;5.00;;
3155;SDS011;1588;50.892;7.082;2022-08-25T08:03:59;7.40;;;4.50;;
3155;SDS011;1588;50.892;7.082;2022-08-25T08:09:01;5.47;;;3.70;;
3155;SDS011;1588;50.892;7.082;2022-08-25T08:14:07;5.80;;;4.10;;
3155;SDS011;1588;50.892;7.082;2022-08-25T08:19:10;8.60;;;4.60;;
3155;SDS011;1588;50.892;7.082;2022-08-25T08:24:13;5.80;;;4.20;;
3155;SDS011;1588;50.892;7.082;2022-08-25T08:29:17;6.93;;;4.27;;
3155;SDS011;1588;50.892;7.082;2022-08-25T08:34:23;7.07;;;4.30;;
3155;SDS011;1588;50.892;7.082;2022-08-25T08:39:26;7.30;;;4.67;;
3155;SDS011;1588;50.892;7.082;2022-08-25T08:44:32;6.07;;;4.00;;
3155;SDS011;1588;50.892;7.082;2022-08-25T08:49:44;7.30;;;4.23;;
3155;SDS011;1588;50.892;7.082;2022-08-25T08:54:55;6.67;;;4.03;;
3155;SDS011;1588;50.892;7.082;2022-08-25T09:00:04;4.97;;;4.03;;
3155;SDS011;1588;50.892;7.082;2022-08-25T09:05:08;6.33;;;3.90;;
3155;SDS011;1588;50.892;7.082;2022-08-25T09:10:14;9.13;;;4.10;;
3155;SDS011;1588;50.892;7.082;2022-08-25T09:15:22;7.47;;;4.23;;
3155;SDS011;1588;50.892;7.082;2022-08-25T09:20:51;7.43;;;3.97;;
3155;SDS011;1588;50.892;7.082;2022-08-25T09:26:06;4.20;;;3.80;;
3155;SDS011;1588;50.892;7.082;2022-08-25T09:31:22;4.53;;;3.73;;
3155;SDS011;1588;50.892;7.082;2022-08-25T09:36:26;11.43;;;4.03;;
3155;SDS011;1588;50.892;7.082;2022-08-25T09:41:39;3.97;;;3.53;;
3155;SDS011;1588;50.892;7.082;2022-08-25T09:46:54;4.30;;;3.90;;
3155;SDS011;1588;50.892;7.082;2022-08-25T09:57:32;4.67;;;3.50;;
3155;SDS011;1588;50.892;7.082;2022-08-25T10:02:38;4.90;;;4.27;;
3155;SDS011;1588;50.892;7.082;2022-08-25T10:07:46;3.97;;;3.60;;
3155;SDS011;1588;50.892;7.082;2022-08-25T10:12:53;5.37;;;4.40;;
3155;SDS011;1588;50.892;7.082;2022-08-25T10:23:30;6.33;;;4.03;;
3155;SDS011;1588;50.892;7.082;2022-08-25T10:28:35;9.70;;;3.77;;
3155;SDS011;1588;50.892;7.082;2022-08-25T10:33:47;168.30;;;9.40;;
3155;SDS011;1588;50.892;7.082;2022-08-25T10:39:00;4.40;;;3.17;;
3155;SDS011;1588;50.892;7.082;2022-08-25T10:44:10;9.90;;;4.07;;
3155;SDS011;1588;50.892;7.082;2022-08-25T10:49:38;6.73;;;3.60;;
3155;SDS011;1588;50.892;7.082;2022-08-25T10:54:47;6.47;;;3.83;;
3155;SDS011;1588;50.892;7.082;2022-08-25T10:59:59;3.80;;;3.50;;
3155;SDS011;1588;50.892;7.082;2022-08-25T11:05:11;4.00;;;3.60;;
3155;SDS011;1588;50.892;7.082;2022-08-25T11:10:21;3.90;;;3.50;;
3155;SDS011;1588;50.892;7.082;2022-08-25T11:15:27;7.77;;;3.60;;
3155;SDS011;1588;50.892;7.082;2022-08-25T11:20:36;4.67;;;3.40;;
3155;SDS011;1588;50.892;7.082;2022-08-25T11:25:44;4.03;;;3.50;;
3155;SDS011;1588;50.892;7.082;2022-08-25T11:30:51;3.90;;;2.83;;
3155;SDS011;1588;50.892;7.082;2022-08-25T11:35:56;5.40;;;3.27;;
3155;SDS011;1588;50.892;7.082;2022-08-25T11:41:04;5.50;;;3.57;;
3155;SDS011;1588;50.892;7.082;2022-08-25T11:51:48;3.23;;;3.00;;
3155;SDS011;1588;50.892;7.082;2022-08-25T11:56:57;3.93;;;3.00;;
3155;SDS011;1588;50.892;7.082;2022-08-25T12:02:03;4.67;;;3.60;;
3155;SDS011;1588;50.892;7.082;2022-08-25T12:07:27;4.73;;;3.57;;
3155;SDS011;1588;50.892;7.082;2022-08-25T12:12:31;11.93;;;3.93;;
3155;SDS011;1588;50.892;7.082;2022-08-25T12:17:38;4.47;;;3.23;;
3155;SDS011;1588;50.892;7.082;2022-08-25T12:22:55;5.10;;;3.80;;
3155;SDS011;1588;50.892;7.082;2022-08-25T12:28:00;4.70;;;3.57;;
3155;SDS011;1588;50.892;7.082;2022-08-25T12:33:10;3.77;;;3.47;;
3155;SDS011;1588;50.892;7.082;2022-08-25T12:38:27;4.70;;;4.03;;
3155;SDS011;1588;50.892;7.082;2022-08-25T12:43:36;4.87;;;3.90;;
3155;SDS011;1588;50.892;7.082;2022-08-25T12:54:38;4.87;;;3.70;;
3155;SDS011;1588;50.892;7.082;2022-08-25T12:59:48;3.50;;;3.20;;
3155;SDS011;1588;50.892;7.082;2022-08-25T13:10:26;3.70;;;3.37;;
3155;SDS011;1588;50.892;7.082;2022-08-25T13:15:41;4.27;;;3.33;;
3155;SDS011;1588;50.892;7.082;2022-08-25T13:20:46;8.87;;;3.77;;
3155;SDS011;1588;50.892;7.082;2022-08-25T13:25:51;6.53;;;3.60;;
3155;SDS011;1588;50.892;7.082;2022-08-25T13:30:57;4.43;;;2.93;;
3155;SDS011;1588;50.892;7.082;2022-08-25T13:36:01;5.03;;;3.33;;
3155;SDS011;1588;50.892;7.082;2022-08-25T13:41:26;10.73;;;3.17;;
3155;SDS011;1588;50.892;7.082;2022-08-25T13:46:28;7.80;;;3.40;;
3155;SDS011;1588;50.892;7.082;2022-08-25T13:51:31;20.40;;;3.77;;
3155;SDS011;1588;50.892;7.082;2022-08-25T13:56:35;3.20;;;2.80;;
3155;SDS011;1588;50.892;7.082;2022-08-25T14:01:43;4.63;;;3.40;;
3155;SDS011;1588;50.892;7.082;2022-08-25T14:06:47;3.50;;;3.20;;
3155;SDS011;1588;50.892;7.082;2022-08-25T14:12:06;8.20;;;2.80;;
3155;SDS011;1588;50.892;7.082;2022-08-25T14:17:08;5.70;;;3.20;;
3155;SDS011;1588;50.892;7.082;2022-08-25T14:22:12;3.30;;;3.00;;
3155;SDS011;1588;50.892;7.082;2022-08-25T14:27:16;3.10;;;2.77;;
3155;SDS011;1588;50.892;7.082;2022-08-25T14:32:19;4.70;;;2.90;;
3155;SDS011;1588;50.892;7.082;2022-08-25T14:37:22;4.03;;;3.37;;
3155;SDS011;1588;50.892;7.082;2022-08-25T14:42:26;3.90;;;3.10;;
3155;SDS011;1588;50.892;7.082;2022-08-25T14:47:28;3.10;;;2.80;;
3155;SDS011;1588;50.892;7.082;2022-08-25T14:52:31;3.23;;;2.93;;
3155;SDS011;1588;50.892;7.082;2022-08-25T14:57:35;26.50;;;3.70;;
3155;SDS011;1588;50.892;7.082;2022-08-25T15:02:38;3.03;;;2.70;;
3155;SDS011;1588;50.892;7.082;2022-08-25T15:07:47;2.93;;;2.73;;
3155;SDS011;1588;50.892;7.082;2022-08-25T15:13:08;5.03;;;2.63;;
3155;SDS011;1588;50.892;7.082;2022-08-25T15:18:11;3.50;;;2.63;;
3155;SDS011;1588;50.892;7.082;2022-08-25T15:23:14;6.47;;;2.90;;
3155;SDS011;1588;50.892;7.082;2022-08-25T15:28:18;5.17;;;2.80;;
3155;SDS011;1588;50.892;7.082;2022-08-25T15:33:24;3.47;;;2.93;;
3155;SDS011;1588;50.892;7.082;2022-08-25T15:38:27;2.60;;;2.40;;
3155;SDS011;1588;50.892;7.082;2022-08-25T15:43:31;6.00;;;2.60;;
3155;SDS011;1588;50.892;7.082;2022-08-25T15:48:33;7.37;;;5.60;;
3155;SDS011;1588;50.892;7.082;2022-08-25T15:53:46;2.83;;;2.60;;
3155;SDS011;1588;50.892;7.082;2022-08-25T15:58:49;4.80;;;2.90;;
3155;SDS011;1588;50.892;7.082;2022-08-25T16:03:52;3.20;;;2.83;;
3155;SDS011;1588;50.892;7.082;2022-08-25T16:08:54;5.80;;;3.10;;
3155;SDS011;1588;50.892;7.082;2022-08-25T16:13:59;3.00;;;2.70;;
3155;SDS011;1588;50.892;7.082;2022-08-25T16:19:02;2.80;;;2.60;;
3155;SDS011;1588;50.892;7.082;2022-08-25T16:24:06;13.13;;;2.90;;
3155;SDS011;1588;50.892;7.082;2022-08-25T16:29:09;3.43;;;2.57;;
3155;SDS011;1588;50.892;7.082;2022-08-25T16:34:14;7.13;;;2.77;;
3155;SDS011;1588;50.892;7.082;2022-08-25T16:39:18;4.73;;;2.60;;
3155;SDS011;1588;50.892;7.082;2022-08-25T16:44:21;4.43;;;2.53;;
3155;SDS011;1588;50.892;7.082;2022-08-25T16:49:25;3.60;;;2.20;;
3155;SDS011;1588;50.892;7.082;2022-08-25T16:54:27;2.80;;;2.43;;
3155;SDS011;1588;50.892;7.082;2022-08-25T16:59:52;2.93;;;2.60;;
3155;SDS011;1588;50.892;7.082;2022-08-25T17:04:55;4.33;;;2.30;;
3155;SDS011;1588;50.892;7.082;2022-08-25T17:09:57;2.83;;;2.37;;
3155;SDS011;1588;50.892;7.082;2022-08-25T17:15:04;3.30;;;2.73;;
3155;SDS011;1588;50.892;7.082;2022-08-25T17:20:09;7.10;;;3.10;;
3155;SDS011;1588;50.892;7.082;2022-08-25T17:25:15;6.73;;;2.67;;
3155;SDS011;1588;50.892;7.082;2022-08-25T17:30:19;2.93;;;2.63;;
3155;SDS011;1588;50.892;7.082;2022-08-25T17:35:25;6.23;;;2.33;;
3155;SDS011;1588;50.892;7.082;2022-08-25T17:40:35;3.37;;;2.80;;
3155;SDS011;1588;50.892;7.082;2022-08-25T17:45:40;4.63;;;3.00;;
3155;SDS011;1588;50.892;7.082;2022-08-25T17:50:43;6.13;;;3.73;;
3155;SDS011;1588;50.892;7.082;2022-08-25T17:55:46;5.80;;;3.77;;
3155;SDS011;1588;50.892;7.082;2022-08-25T18:00:49;3.40;;;2.97;;
3155;SDS011;1588;50.892;7.082;2022-08-25T18:05:52;5.33;;;3.63;;
3155;SDS011;1588;50.892;7.082;2022-08-25T18:10:54;7.43;;;4.40;;
3155;SDS011;1588;50.892;7.082;2022-08-25T18:15:58;5.87;;;4.00;;
3155;SDS011;1588;50.892;7.082;2022-08-25T18:21:01;14.30;;;4.93;;
3155;SDS011;1588;50.892;7.082;2022-08-25T18:26:03;4.63;;;3.77;;
3155;SDS011;1588;50.892;7.082;2022-08-25T18:31:12;6.70;;;3.90;;
3155;SDS011;1588;50.892;7.082;2022-08-25T18:36:15;9.00;;;5.03;;
3155;SDS011;1588;50.892;7.082;2022-08-25T18:41:17;6.90;;;3.90;;
3155;SDS011;1588;50.892;7.082;2022-08-25T18:46:21;8.70;;;3.90;;
3155;SDS011;1588;50.892;7.082;2022-08-25T18:51:23;6.80;;;4.13;;
3155;SDS011;1588;50.892;7.082;2022-08-25T18:56:25;5.40;;;3.70;;
3155;SDS011;1588;50.892;7.082;2022-08-25T19:01:34;4.77;;;3.87;;
3155;SDS011;1588;50.892;7.082;2022-08-25T19:06:37;5.53;;;3.83;;
3155;SDS011;1588;50.892;7.082;2022-08-25T19:11:39;8.40;;;4.53;;
3155;SDS011;1588;50.892;7.082;2022-08-25T19:16:44;5.03;;;3.93;;
3155;SDS011;1588;50.892;7.082;2022-08-25T19:21:46;4.20;;;3.70;;
3155;SDS011;1588;50.892;7.082;2022-08-25T19:26:49;4.30;;;3.40;;
3155;SDS011;1588;50.892;7.082;2022-08-25T19:32:01;11.27;;;4.00;;
3155;SDS011;1588;50.892;7.082;2022-08-25T19:37:05;7.47;;;4.27;;
3155;SDS011;1588;50.892;7.082;2022-08-25T19:42:08;8.20;;;4.53;;
3155;SDS011;1588;50.892;7.082;2022-08-25T19:47:12;5.60;;;3.50;;
3155;SDS011;1588;50.892;7.082;2022-08-25T19:52:14;9.07;;;4.40;;
3155;SDS011;1588;50.892;7.082;2022-08-25T19:57:24;6.80;;;4.37;;
3155;SDS011;1588;50.892;7.082;2022-08-25T20:02:27;8.23;;;4.37;;
3155;SDS011;1588;50.892;7.082;2022-08-25T20:07:30;7.37;;;3.73;;
3155;SDS011;1588;50.892;7.082;2022-08-25T20:12:32;7.63;;;5.03;;
3155;SDS011;1588;50.892;7.082;2022-08-25T20:17:36;14.53;;;5.03;;
3155;SDS011;1588;50.892;7.082;2022-08-25T20:22:39;9.60;;;5.50;;
3155;SDS011;1588;50.892;7.082;2022-08-25T20:27:43;9.63;;;5.27;;
3155;SDS011;1588;50.892;7.082;2022-08-25T20:32:48;10.27;;;5.63;;
3155;SDS011;1588;50.892;7.082;2022-08-25T20:37:50;10.17;;;5.50;;
3155;SDS011;1588;50.892;7.082;2022-08-25T20:42:54;9.90;;;5.40;;
3155;SDS011;1588;50.892;7.082;2022-08-25T20:47:59;8.40;;;5.07;;
3155;SDS011;1588;50.892;7.082;2022-08-25T20:53:01;10.13;;;5.60;;
3155;SDS011;1588;50.892;7.082;2022-08-25T20:58:10;6.17;;;4.53;;
3155;SDS011;1588;50.892;7.082;2022-08-25T21:03:16;8.33;;;4.57;;
3155;SDS011;1588;50.892;7.082;2022-08-25T21:08:18;7.40;;;4.43;;
3155;SDS011;1588;50.892;7.082;2022-08-25T21:13:20;8.80;;;4.83;;
3155;SDS011;1588;50.892;7.082;2022-08-25T21:18:24;9.43;;;5.50;;
3155;SDS011;1588;50.892;7.082;2022-08-25T21:23:26;8.50;;;4.60;;
3155;SDS011;1588;50.892;7.082;2022-08-25T21:28:29;8.80;;;5.40;;
3155;SDS011;1588;50.892;7.082;2022-08-25T21:33:33;13.60;;;5.33;;
3155;SDS011;1588;50.892;7.082;2022-08-25T21:38:35;9.90;;;5.47;;
3155;SDS011;1588;50.892;7.082;2022-08-25T21:43:38;10.37;;;5.20;;
3155;SDS011;1588;50.892;7.082;2022-08-25T21:48:41;10.00;;;5.30;;
3155;SDS011;1588;50.892;7.082;2022-08-25T21:53:45;11.70;;;5.70;;
3155;SDS011;1588;50.892;7.082;2022-08-25T21:58:47;14.73;;;5.33;;
3155;SDS011;1588;50.892;7.082;2022-08-25T22:03:51;7.80;;;4.90;;
3155;SDS011;1588;50.892;7.082;2022-08-25T22:08:53;9.70;;;5.07;;
3155;SDS011;1588;50.892;7.082;2022-08-25T22:13:56;10.10;;;5.10;;
3155;SDS011;1588;50.892;7.082;2022-08-25T22:19:01;8.30;;;4.83;;
3155;SDS011;1588;50.892;7.082;2022-08-25T22:24:05;10.27;;;5.63;;
3155;SDS011;1588;50.892;7.082;2022-08-25T22:29:07;13.23;;;5.67;;
3155;SDS011;1588;50.892;7.082;2022-08-25T22:34:11;10.87;;;5.07;;
3155;SDS011;1588;50.892;7.082;2022-08-25T22:39:14;8.03;;;4.80;;
3155;SDS011;1588;50.892;7.082;2022-08-25T22:44:17;12.23;;;5.70;;
3155;SDS011;1588;50.892;7.082;2022-08-25T22:49:34;6.27;;;4.90;;
3155;SDS011;1588;50.892;7.082;2022-08-25T22:54:38;9.10;;;4.87;;
3155;SDS011;1588;50.892;7.082;2022-08-25T22:59:44;8.37;;;5.10;;
3155;SDS011;1588;50.892;7.082;2022-08-25T23:04:50;8.27;;;5.53;;
3155;SDS011;1588;50.892;7.082;2022-08-25T23:09:54;14.97;;;5.67;;
3155;SDS011;1588;50.892;7.082;2022-08-25T23:14:59;8.90;;;4.97;;
3155;SDS011;1588;50.892;7.082;2022-08-25T23:20:04;7.70;;;5.10;;
3155;SDS011;1588;50.892;7.082;2022-08-25T23:25:29;9.90;;;6.20;;
3155;SDS011;1588;50.892;7.082;2022-08-25T23:30:31;7.53;;;5.10;;
3155;SDS011;1588;50.892;7.082;2022-08-25T23:35:35;9.63;;;6.13;;
3155;SDS011;1588;50.892;7.082;2022-08-25T23:40:38;9.23;;;6.27;;
3155;SDS011;1588;50.892;7.082;2022-08-25T23:45:42;11.27;;;5.97;;
3155;SDS011;1588;50.892;7.082;2022-08-25T23:50:47;8.40;;;5.50;;
3155;SDS011;1588;50.892;7.082;2022-08-25T23:55:50;8.20;;;6.00;;
